LFPB Airport Information

Runway Information
Runway 03 Length 8743 ft width 197 ft
Elevation 147 ft Threshold 0 ft Heading 26
Runway 21 Length 8743 ft Width 197 ft
Elevation 182 ft Threshold 0 ft Heading 206
Runway 07 Length 9843 ft width 148 ft
Elevation 155 ft Threshold 985 ft Heading 69
Runway 25 Length 9843 ft Width 148 ft
Elevation 186 ft Threshold 2953 ft Heading 249
Runway 09 Length 6053 ft width 148 ft
Elevation 148 ft Threshold 0 ft Heading 86
Runway 27 Length 6053 ft Width 148 ft
Elevation 166 ft Threshold 0 ft Heading 266
Airport Frequencies
Type APP Name DE GAULLE Frequency 121.15 MHZ
Type APP Name DE GAULLE Frequency 136.275 MHZ
Type ATIS Name ATIS Frequency 120 MHZ
Type DEP Name DE GAULLE Frequency 124.35 MHZ
Type GND Name GND Frequency 121.9 MHZ
Type PFLT Name PREFLIGHT Frequency 121.95 MHZ
Type TWR Name TWR Frequency 118.925 MHZ
Airport Navaids
Type VOR-DME Name Le Bourget Frequency 116100 KHZ
Airport Weather Information & NOTAM
ADDS - METARS form results

(1454 UTC 14 June 2021)
Data provider http://aviationweather.gov/metar/data/
 
METAR text: LFPB 141430Z AUTO 08005KT 060V120 CAVOK 29/09 Q1019 NOSIG
Conditions at: LFPB (PARIS/LE BOURGET, FR) observed 1430 UTC 14 June 2021
Temperature: 29.0°C (84°F)
Dewpoint: 9.0°C (48°F) [RH = 29%]
Pressure (altimeter): 30.09 inches Hg (1019.0 mb)
Winds: from the E (80 degrees) at 6 MPH (5 knots; 2.6 m/s)
Visibility: 6 or more miles (10+ km)
Ceiling: ceiling and visibility are OK
Clouds: unknown
Weather: no significant weather observed at this time

METAR text: LFPB 141400Z AUTO 08004KT 010V160 CAVOK 29/08 Q1019 NOSIG
Conditions at: LFPB (PARIS/LE BOURGET, FR) observed 1400 UTC 14 June 2021
Temperature: 29.0°C (84°F)
Dewpoint: 8.0°C (46°F) [RH = 27%]
Pressure (altimeter): 30.09 inches Hg (1019.0 mb)
Winds: from the E (80 degrees) at 5 MPH (4 knots; 2.1 m/s)
Visibility: 6 or more miles (10+ km)
Ceiling: ceiling and visibility are OK
Clouds: unknown
Weather: no significant weather observed at this time

Forecast for: LFPB (PARIS/LE BOURGET, FR)
Text: TAF LFPB 141100Z 1412/1512 03005KT CAVOK
Forecast period: 1200 UTC 14 June 2021 to 1200 UTC 15 June 2021
Forecast type: FROM: standard forecast or significant change
Winds: from the NNE (30 degrees) at 6 MPH (5 knots; 2.6 m/s)
Visibility: 6 or more miles (10+ km)
Ceiling: unknown
Clouds: missing
Weather: NSW  (no significant weather)